sensor_id;sensor_type;location;lat;lon;timestamp;temperature;humidity
7502;DHT22;3792;47.740;7.606;2022-12-15T00:00:49;0.80;99.90
7502;DHT22;3792;47.740;7.606;2022-12-15T00:03:34;0.80;99.90
7502;DHT22;3792;47.740;7.606;2022-12-15T00:06:18;0.70;99.90
7502;DHT22;3792;47.740;7.606;2022-12-15T00:09:03;0.80;99.90
7502;DHT22;3792;47.740;7.606;2022-12-15T00:11:49;0.80;99.90
7502;DHT22;3792;47.740;7.606;2022-12-15T00:14:34;0.80;99.90
7502;DHT22;3792;47.740;7.606;2022-12-15T00:17:18;0.80;99.90
7502;DHT22;3792;47.740;7.606;2022-12-15T00:20:03;0.80;99.90
7502;DHT22;3792;47.740;7.606;2022-12-15T00:22:47;0.80;99.90
7502;DHT22;3792;47.740;7.606;2022-12-15T00:25:32;0.80;99.90
7502;DHT22;3792;47.740;7.606;2022-12-15T00:28:18;0.80;99.90
7502;DHT22;3792;47.740;7.606;2022-12-15T00:31:02;0.80;99.90
7502;DHT22;3792;47.740;7.606;2022-12-15T00:33:47;0.80;99.90
7502;DHT22;3792;47.740;7.606;2022-12-15T00:36:31;0.80;99.90
7502;DHT22;3792;47.740;7.606;2022-12-15T00:39:16;0.80;99.90
7502;DHT22;3792;47.740;7.606;2022-12-15T00:41:43;0.80;99.90
7502;DHT22;3792;47.740;7.606;2022-12-15T00:44:11;0.80;99.90
7502;DHT22;3792;47.740;7.606;2022-12-15T00:46:39;0.80;99.90
7502;DHT22;3792;47.740;7.606;2022-12-15T00:49:21;0.80;99.90
7502;DHT22;3792;47.740;7.606;2022-12-15T00:52:05;0.90;99.90
7502;DHT22;3792;47.740;7.606;2022-12-15T00:54:50;0.90;99.90
7502;DHT22;3792;47.740;7.606;2022-12-15T00:57:34;0.90;99.90
7502;DHT22;3792;47.740;7.606;2022-12-15T01:00:21;1.00;99.90
7502;DHT22;3792;47.740;7.606;2022-12-15T01:03:09;1.00;99.90
7502;DHT22;3792;47.740;7.606;2022-12-15T01:05:54;1.10;99.90
7502;DHT22;3792;47.740;7.606;2022-12-15T01:08:38;1.10;99.90
7502;DHT22;3792;47.740;7.606;2022-12-15T01:11:22;1.10;99.90
7502;DHT22;3792;47.740;7.606;2022-12-15T01:14:07;1.10;99.90
7502;DHT22;3792;47.740;7.606;2022-12-15T01:16:53;1.10;99.90
7502;DHT22;3792;47.740;7.606;2022-12-15T01:19:37;1.10;99.90
7502;DHT22;3792;47.740;7.606;2022-12-15T01:22:22;1.00;99.90
7502;DHT22;3792;47.740;7.606;2022-12-15T01:24:49;1.00;99.90
7502;DHT22;3792;47.740;7.606;2022-12-15T01:27:16;1.00;99.90
7502;DHT22;3792;47.740;7.606;2022-12-15T01:29:43;1.00;99.90
7502;DHT22;3792;47.740;7.606;2022-12-15T01:32:12;0.90;99.90
7502;DHT22;3792;47.740;7.606;2022-12-15T01:34:39;0.90;99.90
7502;DHT22;3792;47.740;7.606;2022-12-15T01:37:07;0.80;99.90
7502;DHT22;3792;47.740;7.606;2022-12-15T01:39:34;0.90;99.90
7502;DHT22;3792;47.740;7.606;2022-12-15T01:42:18;0.80;99.90
7502;DHT22;3792;47.740;7.606;2022-12-15T01:44:49;0.80;99.90
7502;DHT22;3792;47.740;7.606;2022-12-15T01:47:21;0.70;99.90
7502;DHT22;3792;47.740;7.606;2022-12-15T01:49:49;0.80;99.90
7502;DHT22;3792;47.740;7.606;2022-12-15T01:52:17;0.80;99.90
7502;DHT22;3792;47.740;7.606;2022-12-15T01:54:48;0.80;99.90
7502;DHT22;3792;47.740;7.606;2022-12-15T01:57:20;0.80;99.90
7502;DHT22;3792;47.740;7.606;2022-12-15T01:59:51;0.80;99.90
7502;DHT22;3792;47.740;7.606;2022-12-15T02:02:24;0.70;99.90
7502;DHT22;3792;47.740;7.606;2022-12-15T02:04:53;0.70;99.90
7502;DHT22;3792;47.740;7.606;2022-12-15T02:07:22;0.70;99.90
7502;DHT22;3792;47.740;7.606;2022-12-15T02:09:51;0.70;99.90
7502;DHT22;3792;47.740;7.606;2022-12-15T02:12:25;0.70;99.90
7502;DHT22;3792;47.740;7.606;2022-12-15T02:15:10;0.60;99.90
7502;DHT22;3792;47.740;7.606;2022-12-15T02:17:49;0.70;99.90
7502;DHT22;3792;47.740;7.606;2022-12-15T02:20:41;0.70;99.90
7502;DHT22;3792;47.740;7.606;2022-12-15T02:29:34;0.70;99.90
7502;DHT22;3792;47.740;7.606;2022-12-15T02:32:08;0.70;99.90
7502;DHT22;3792;47.740;7.606;2022-12-15T02:34:41;0.70;99.90
7502;DHT22;3792;47.740;7.606;2022-12-15T02:37:13;0.60;99.90
7502;DHT22;3792;47.740;7.606;2022-12-15T02:39:42;0.70;99.90
7502;DHT22;3792;47.740;7.606;2022-12-15T02:42:10;0.70;99.90
7502;DHT22;3792;47.740;7.606;2022-12-15T02:44:39;0.60;99.90
7502;DHT22;3792;47.740;7.606;2022-12-15T02:47:18;0.70;99.90
7502;DHT22;3792;47.740;7.606;2022-12-15T02:49:56;0.70;99.90
7502;DHT22;3792;47.740;7.606;2022-12-15T02:52:33;0.70;99.90
7502;DHT22;3792;47.740;7.606;2022-12-15T02:55:11;0.60;99.90
7502;DHT22;3792;47.740;7.606;2022-12-15T02:57:47;0.50;99.90
7502;DHT22;3792;47.740;7.606;2022-12-15T03:00:16;0.50;99.90
7502;DHT22;3792;47.740;7.606;2022-12-15T03:02:47;0.50;99.90
7502;DHT22;3792;47.740;7.606;2022-12-15T03:05:15;0.50;99.90
7502;DHT22;3792;47.740;7.606;2022-12-15T03:07:43;0.60;99.90
7502;DHT22;3792;47.740;7.606;2022-12-15T03:10:12;0.60;99.90
7502;DHT22;3792;47.740;7.606;2022-12-15T03:12:39;0.60;99.90
7502;DHT22;3792;47.740;7.606;2022-12-15T03:15:07;0.60;99.90
7502;DHT22;3792;47.740;7.606;2022-12-15T03:17:34;0.60;99.90
7502;DHT22;3792;47.740;7.606;2022-12-15T03:20:05;0.60;99.90
7502;DHT22;3792;47.740;7.606;2022-12-15T03:22:33;0.60;99.90
7502;DHT22;3792;47.740;7.606;2022-12-15T03:25:00;0.50;99.90
7502;DHT22;3792;47.740;7.606;2022-12-15T03:27:27;0.50;99.90
7502;DHT22;3792;47.740;7.606;2022-12-15T03:29:55;0.60;99.90
7502;DHT22;3792;47.740;7.606;2022-12-15T03:32:22;0.60;99.90
7502;DHT22;3792;47.740;7.606;2022-12-15T03:34:50;0.60;99.90
7502;DHT22;3792;47.740;7.606;2022-12-15T03:37:19;0.60;99.90
7502;DHT22;3792;47.740;7.606;2022-12-15T03:39:46;0.60;99.90
7502;DHT22;3792;47.740;7.606;2022-12-15T03:42:13;0.50;99.90
7502;DHT22;3792;47.740;7.606;2022-12-15T03:45:00;0.50;99.90
7502;DHT22;3792;47.740;7.606;2022-12-15T03:47:27;0.50;99.90
7502;DHT22;3792;47.740;7.606;2022-12-15T03:49:54;0.60;99.90
7502;DHT22;3792;47.740;7.606;2022-12-15T03:52:23;0.60;99.90
7502;DHT22;3792;47.740;7.606;2022-12-15T03:54:50;0.60;99.90
7502;DHT22;3792;47.740;7.606;2022-12-15T03:57:18;0.60;99.90
7502;DHT22;3792;47.740;7.606;2022-12-15T03:59:45;0.60;99.90
7502;DHT22;3792;47.740;7.606;2022-12-15T04:02:12;0.60;99.90
7502;DHT22;3792;47.740;7.606;2022-12-15T04:04:39;0.60;99.90
7502;DHT22;3792;47.740;7.606;2022-12-15T04:07:06;0.60;99.90
7502;DHT22;3792;47.740;7.606;2022-12-15T04:09:35;0.70;99.90
7502;DHT22;3792;47.740;7.606;2022-12-15T04:12:03;0.70;99.90
7502;DHT22;3792;47.740;7.606;2022-12-15T04:14:30;0.70;99.90
7502;DHT22;3792;47.740;7.606;2022-12-15T04:16:57;0.60;99.90
7502;DHT22;3792;47.740;7.606;2022-12-15T04:19:24;0.70;99.90
7502;DHT22;3792;47.740;7.606;2022-12-15T04:22:09;0.70;99.90
7502;DHT22;3792;47.740;7.606;2022-12-15T04:24:37;0.60;99.90
7502;DHT22;3792;47.740;7.606;2022-12-15T04:27:22;0.60;99.90
7502;DHT22;3792;47.740;7.606;2022-12-15T04:30:07;0.50;99.90
7502;DHT22;3792;47.740;7.606;2022-12-15T04:32:52;0.50;99.90
7502;DHT22;3792;47.740;7.606;2022-12-15T04:35:37;0.40;99.90
7502;DHT22;3792;47.740;7.606;2022-12-15T04:38:22;0.50;99.90
7502;DHT22;3792;47.740;7.606;2022-12-15T04:41:08;0.40;99.90
7502;DHT22;3792;47.740;7.606;2022-12-15T04:43:52;0.50;99.90
7502;DHT22;3792;47.740;7.606;2022-12-15T04:46:36;0.50;99.90
7502;DHT22;3792;47.740;7.606;2022-12-15T04:49:21;0.50;99.90
7502;DHT22;3792;47.740;7.606;2022-12-15T04:52:05;0.40;99.90
7502;DHT22;3792;47.740;7.606;2022-12-15T04:54:50;0.40;99.90
7502;DHT22;3792;47.740;7.606;2022-12-15T04:57:35;0.40;99.90
7502;DHT22;3792;47.740;7.606;2022-12-15T05:00:20;0.40;99.90
7502;DHT22;3792;47.740;7.606;2022-12-15T05:03:05;0.40;99.90
7502;DHT22;3792;47.740;7.606;2022-12-15T05:05:50;0.40;99.90
7502;DHT22;3792;47.740;7.606;2022-12-15T05:08:34;0.40;99.90
7502;DHT22;3792;47.740;7.606;2022-12-15T05:11:19;0.40;99.90
7502;DHT22;3792;47.740;7.606;2022-12-15T05:14:05;0.50;99.90
7502;DHT22;3792;47.740;7.606;2022-12-15T05:16:49;0.60;99.90
7502;DHT22;3792;47.740;7.606;2022-12-15T05:19:34;0.70;99.90
7502;DHT22;3792;47.740;7.606;2022-12-15T05:22:18;0.60;99.90
7502;DHT22;3792;47.740;7.606;2022-12-15T05:25:03;0.70;99.90
7502;DHT22;3792;47.740;7.606;2022-12-15T05:27:47;0.70;99.90
7502;DHT22;3792;47.740;7.606;2022-12-15T05:30:33;0.70;99.90
7502;DHT22;3792;47.740;7.606;2022-12-15T05:33:18;0.80;99.90
7502;DHT22;3792;47.740;7.606;2022-12-15T05:35:45;0.80;99.90
7502;DHT22;3792;47.740;7.606;2022-12-15T05:38:12;0.70;99.90
7502;DHT22;3792;47.740;7.606;2022-12-15T05:40:39;0.80;99.90
7502;DHT22;3792;47.740;7.606;2022-12-15T05:43:06;0.70;99.90
7502;DHT22;3792;47.740;7.606;2022-12-15T05:45:35;0.70;99.90
7502;DHT22;3792;47.740;7.606;2022-12-15T05:48:02;0.70;99.90
7502;DHT22;3792;47.740;7.606;2022-12-15T05:50:29;0.70;99.90
7502;DHT22;3792;47.740;7.606;2022-12-15T05:52:57;0.70;99.90
7502;DHT22;3792;47.740;7.606;2022-12-15T05:55:24;0.70;99.90
7502;DHT22;3792;47.740;7.606;2022-12-15T05:57:51;0.70;99.90
7502;DHT22;3792;47.740;7.606;2022-12-15T06:00:19;0.60;99.90
7502;DHT22;3792;47.740;7.606;2022-12-15T06:02:48;0.60;99.90
7502;DHT22;3792;47.740;7.606;2022-12-15T06:05:15;0.60;99.90
7502;DHT22;3792;47.740;7.606;2022-12-15T06:07:43;0.50;99.90
7502;DHT22;3792;47.740;7.606;2022-12-15T06:10:10;0.50;99.90
7502;DHT22;3792;47.740;7.606;2022-12-15T06:12:37;0.50;99.90
7502;DHT22;3792;47.740;7.606;2022-12-15T06:15:05;0.50;99.90
7502;DHT22;3792;47.740;7.606;2022-12-15T06:17:32;0.50;99.90
7502;DHT22;3792;47.740;7.606;2022-12-15T06:20:00;0.50;99.90
7502;DHT22;3792;47.740;7.606;2022-12-15T06:22:28;0.50;99.90
7502;DHT22;3792;47.740;7.606;2022-12-15T06:24:55;0.50;99.90
7502;DHT22;3792;47.740;7.606;2022-12-15T06:27:22;0.50;99.90
7502;DHT22;3792;47.740;7.606;2022-12-15T06:29:49;0.50;99.90
7502;DHT22;3792;47.740;7.606;2022-12-15T06:32:16;0.60;99.90
7502;DHT22;3792;47.740;7.606;2022-12-15T06:34:46;0.60;99.90
7502;DHT22;3792;47.740;7.606;2022-12-15T06:37:15;0.60;99.90
7502;DHT22;3792;47.740;7.606;2022-12-15T06:39:42;0.60;99.90
7502;DHT22;3792;47.740;7.606;2022-12-15T06:42:09;0.50;99.90
7502;DHT22;3792;47.740;7.606;2022-12-15T06:44:37;0.50;99.90
7502;DHT22;3792;47.740;7.606;2022-12-15T06:47:04;0.50;99.90
7502;DHT22;3792;47.740;7.606;2022-12-15T06:49:31;0.50;99.90
7502;DHT22;3792;47.740;7.606;2022-12-15T06:51:59;0.50;99.90
7502;DHT22;3792;47.740;7.606;2022-12-15T06:54:27;0.90;99.90
7502;DHT22;3792;47.740;7.606;2022-12-15T06:56:54;1.50;99.90
7502;DHT22;3792;47.740;7.606;2022-12-15T06:59:21;1.90;99.90
7502;DHT22;3792;47.740;7.606;2022-12-15T07:01:48;1.70;99.90
7502;DHT22;3792;47.740;7.606;2022-12-15T07:04:15;1.40;99.90
7502;DHT22;3792;47.740;7.606;2022-12-15T07:06:42;1.10;99.90
7502;DHT22;3792;47.740;7.606;2022-12-15T07:09:13;0.90;99.90
7502;DHT22;3792;47.740;7.606;2022-12-15T07:11:43;0.70;99.90
7502;DHT22;3792;47.740;7.606;2022-12-15T07:14:11;0.60;99.90
7502;DHT22;3792;47.740;7.606;2022-12-15T07:16:38;0.50;99.90
7502;DHT22;3792;47.740;7.606;2022-12-15T07:19:07;0.40;99.90
7502;DHT22;3792;47.740;7.606;2022-12-15T07:21:36;0.40;99.90
7502;DHT22;3792;47.740;7.606;2022-12-15T07:24:03;0.40;99.90
7502;DHT22;3792;47.740;7.606;2022-12-15T07:26:30;0.40;99.90
7502;DHT22;3792;47.740;7.606;2022-12-15T07:28:59;0.40;99.90
7502;DHT22;3792;47.740;7.606;2022-12-15T07:31:26;0.40;99.90
7502;DHT22;3792;47.740;7.606;2022-12-15T07:33:53;0.40;99.90
7502;DHT22;3792;47.740;7.606;2022-12-15T07:36:20;0.40;99.90
7502;DHT22;3792;47.740;7.606;2022-12-15T07:38:48;0.40;99.90
7502;DHT22;3792;47.740;7.606;2022-12-15T07:41:15;0.50;99.90
7502;DHT22;3792;47.740;7.606;2022-12-15T07:43:42;0.40;99.90
7502;DHT22;3792;47.740;7.606;2022-12-15T07:46:12;0.50;99.90
7502;DHT22;3792;47.740;7.606;2022-12-15T07:48:39;0.50;99.90
7502;DHT22;3792;47.740;7.606;2022-12-15T07:51:07;0.50;99.90
7502;DHT22;3792;47.740;7.606;2022-12-15T07:53:34;0.60;99.90
7502;DHT22;3792;47.740;7.606;2022-12-15T07:56:03;0.70;99.90
7502;DHT22;3792;47.740;7.606;2022-12-15T07:58:31;0.70;99.90
7502;DHT22;3792;47.740;7.606;2022-12-15T08:01:00;0.60;99.90
7502;DHT22;3792;47.740;7.606;2022-12-15T08:03:29;0.60;99.90
7502;DHT22;3792;47.740;7.606;2022-12-15T08:05:56;0.60;99.90
7502;DHT22;3792;47.740;7.606;2022-12-15T08:08:23;0.60;99.90
7502;DHT22;3792;47.740;7.606;2022-12-15T08:10:51;0.50;99.90
7502;DHT22;3792;47.740;7.606;2022-12-15T08:13:19;0.50;99.90
7502;DHT22;3792;47.740;7.606;2022-12-15T08:15:46;0.50;99.90
7502;DHT22;3792;47.740;7.606;2022-12-15T08:18:18;0.60;99.90
7502;DHT22;3792;47.740;7.606;2022-12-15T08:20:48;0.60;99.90
7502;DHT22;3792;47.740;7.606;2022-12-15T08:23:16;0.50;99.90
7502;DHT22;3792;47.740;7.606;2022-12-15T08:25:43;0.30;99.90
7502;DHT22;3792;47.740;7.606;2022-12-15T08:28:10;0.30;99.90
7502;DHT22;3792;47.740;7.606;2022-12-15T08:30:37;0.30;99.90
7502;DHT22;3792;47.740;7.606;2022-12-15T08:33:05;0.30;99.90
7502;DHT22;3792;47.740;7.606;2022-12-15T08:35:34;0.30;99.90
7502;DHT22;3792;47.740;7.606;2022-12-15T08:38:05;0.30;99.90
7502;DHT22;3792;47.740;7.606;2022-12-15T08:40:32;0.30;99.90
7502;DHT22;3792;47.740;7.606;2022-12-15T08:42:59;0.30;99.90
7502;DHT22;3792;47.740;7.606;2022-12-15T08:45:27;0.40;99.90
7502;DHT22;3792;47.740;7.606;2022-12-15T08:47:54;0.40;99.90
7502;DHT22;3792;47.740;7.606;2022-12-15T08:50:21;0.50;99.90
7502;DHT22;3792;47.740;7.606;2022-12-15T08:52:49;0.50;99.90
7502;DHT22;3792;47.740;7.606;2022-12-15T08:55:17;0.50;99.90
7502;DHT22;3792;47.740;7.606;2022-12-15T08:57:45;0.50;99.90
7502;DHT22;3792;47.740;7.606;2022-12-15T09:00:13;0.50;99.90
7502;DHT22;3792;47.740;7.606;2022-12-15T09:02:40;0.40;99.90
7502;DHT22;3792;47.740;7.606;2022-12-15T09:05:08;0.40;99.90
7502;DHT22;3792;47.740;7.606;2022-12-15T09:07:35;0.40;99.90
7502;DHT22;3792;47.740;7.606;2022-12-15T09:10:03;0.40;99.90
7502;DHT22;3792;47.740;7.606;2022-12-15T09:12:31;0.50;99.90
7502;DHT22;3792;47.740;7.606;2022-12-15T09:14:59;0.70;99.90
7502;DHT22;3792;47.740;7.606;2022-12-15T09:17:26;0.90;99.90
7502;DHT22;3792;47.740;7.606;2022-12-15T09:19:53;0.80;99.90
7502;DHT22;3792;47.740;7.606;2022-12-15T09:22:20;0.70;99.90
7502;DHT22;3792;47.740;7.606;2022-12-15T09:24:48;0.70;99.90
7502;DHT22;3792;47.740;7.606;2022-12-15T09:27:15;0.60;99.90
7502;DHT22;3792;47.740;7.606;2022-12-15T09:29:44;0.60;99.90
7502;DHT22;3792;47.740;7.606;2022-12-15T09:32:11;0.60;99.90
7502;DHT22;3792;47.740;7.606;2022-12-15T09:34:39;0.60;99.90
7502;DHT22;3792;47.740;7.606;2022-12-15T09:37:06;0.50;99.90
7502;DHT22;3792;47.740;7.606;2022-12-15T09:39:33;0.60;99.90
7502;DHT22;3792;47.740;7.606;2022-12-15T09:42:03;0.60;99.90
7502;DHT22;3792;47.740;7.606;2022-12-15T09:44:31;0.60;99.90
7502;DHT22;3792;47.740;7.606;2022-12-15T09:47:05;0.60;99.90
7502;DHT22;3792;47.740;7.606;2022-12-15T09:49:47;0.60;99.90
7502;DHT22;3792;47.740;7.606;2022-12-15T09:52:18;0.60;99.90
7502;DHT22;3792;47.740;7.606;2022-12-15T09:54:46;0.60;99.90
7502;DHT22;3792;47.740;7.606;2022-12-15T09:57:21;0.60;99.90
7502;DHT22;3792;47.740;7.606;2022-12-15T10:00:00;0.70;99.90
7502;DHT22;3792;47.740;7.606;2022-12-15T10:03:02;0.70;99.90
7502;DHT22;3792;47.740;7.606;2022-12-15T10:05:38;0.80;99.90
7502;DHT22;3792;47.740;7.606;2022-12-15T10:08:08;0.80;99.90
7502;DHT22;3792;47.740;7.606;2022-12-15T10:10:40;0.80;99.90
7502;DHT22;3792;47.740;7.606;2022-12-15T10:13:16;0.90;99.90
7502;DHT22;3792;47.740;7.606;2022-12-15T10:15:46;0.90;99.90
7502;DHT22;3792;47.740;7.606;2022-12-15T10:18:19;0.90;99.90
7502;DHT22;3792;47.740;7.606;2022-12-15T10:20:48;0.90;99.90
7502;DHT22;3792;47.740;7.606;2022-12-15T10:23:17;0.60;99.90
7502;DHT22;3792;47.740;7.606;2022-12-15T10:25:48;0.60;99.90
7502;DHT22;3792;47.740;7.606;2022-12-15T10:28:38;0.60;99.90
7502;DHT22;3792;47.740;7.606;2022-12-15T10:31:15;0.40;99.90
7502;DHT22;3792;47.740;7.606;2022-12-15T10:33:47;0.40;99.90
7502;DHT22;3792;47.740;7.606;2022-12-15T10:36:16;0.40;99.90
7502;DHT22;3792;47.740;7.606;2022-12-15T10:38:44;0.50;99.90
7502;DHT22;3792;47.740;7.606;2022-12-15T10:41:14;0.50;99.90
7502;DHT22;3792;47.740;7.606;2022-12-15T10:43:43;0.50;99.90
7502;DHT22;3792;47.740;7.606;2022-12-15T10:46:12;0.50;99.90
7502;DHT22;3792;47.740;7.606;2022-12-15T10:48:40;0.60;99.90
7502;DHT22;3792;47.740;7.606;2022-12-15T10:51:18;0.60;99.90
7502;DHT22;3792;47.740;7.606;2022-12-15T10:53:47;0.60;99.90
7502;DHT22;3792;47.740;7.606;2022-12-15T10:56:19;0.70;99.90
7502;DHT22;3792;47.740;7.606;2022-12-15T10:58:48;0.60;99.90
7502;DHT22;3792;47.740;7.606;2022-12-15T11:01:19;0.60;99.90
7502;DHT22;3792;47.740;7.606;2022-12-15T11:03:49;0.60;99.90
7502;DHT22;3792;47.740;7.606;2022-12-15T11:06:21;0.60;99.90
7502;DHT22;3792;47.740;7.606;2022-12-15T11:08:50;0.50;99.90
7502;DHT22;3792;47.740;7.606;2022-12-15T11:11:27;0.30;99.90
7502;DHT22;3792;47.740;7.606;2022-12-15T11:14:14;0.20;99.90
7502;DHT22;3792;47.740;7.606;2022-12-15T11:16:47;0.10;99.90
7502;DHT22;3792;47.740;7.606;2022-12-15T11:22:07;0.20;99.90
7502;DHT22;3792;47.740;7.606;2022-12-15T11:24:41;0.10;99.90
7502;DHT22;3792;47.740;7.606;2022-12-15T11:27:14;0.30;99.90
7502;DHT22;3792;47.740;7.606;2022-12-15T11:30:00;0.30;99.90
7502;DHT22;3792;47.740;7.606;2022-12-15T11:32:32;0.10;99.90
7502;DHT22;3792;47.740;7.606;2022-12-15T11:34:59;0.20;99.90
7502;DHT22;3792;47.740;7.606;2022-12-15T11:37:38;0.10;99.90
7502;DHT22;3792;47.740;7.606;2022-12-15T11:40:24;0.10;99.90
7502;DHT22;3792;47.740;7.606;2022-12-15T11:43:02;0.20;99.90
7502;DHT22;3792;47.740;7.606;2022-12-15T11:45:38;0.20;99.90
7502;DHT22;3792;47.740;7.606;2022-12-15T11:48:11;0.20;99.90
7502;DHT22;3792;47.740;7.606;2022-12-15T11:50:47;0.20;99.90
7502;DHT22;3792;47.740;7.606;2022-12-15T11:53:44;0.10;99.90
7502;DHT22;3792;47.740;7.606;2022-12-15T11:56:20;0.70;99.90
7502;DHT22;3792;47.740;7.606;2022-12-15T11:59:01;1.60;99.90
7502;DHT22;3792;47.740;7.606;2022-12-15T12:01:50;2.40;99.90
7502;DHT22;3792;47.740;7.606;2022-12-15T12:04:21;3.00;99.90
7502;DHT22;3792;47.740;7.606;2022-12-15T12:07:02;3.10;99.90
7502;DHT22;3792;47.740;7.606;2022-12-15T12:09:35;3.10;99.90
7502;DHT22;3792;47.740;7.606;2022-12-15T12:12:16;2.80;99.90
7502;DHT22;3792;47.740;7.606;2022-12-15T12:14:53;2.50;99.90
7502;DHT22;3792;47.740;7.606;2022-12-15T12:17:32;2.20;99.90
7502;DHT22;3792;47.740;7.606;2022-12-15T12:20:02;2.00;99.90
7502;DHT22;3792;47.740;7.606;2022-12-15T12:22:39;1.90;99.90
7502;DHT22;3792;47.740;7.606;2022-12-15T12:25:12;1.70;99.90
7502;DHT22;3792;47.740;7.606;2022-12-15T12:27:45;1.50;99.90
7502;DHT22;3792;47.740;7.606;2022-12-15T12:30:16;1.30;99.90
7502;DHT22;3792;47.740;7.606;2022-12-15T12:32:50;1.10;99.90
7502;DHT22;3792;47.740;7.606;2022-12-15T12:35:24;1.20;99.90
7502;DHT22;3792;47.740;7.606;2022-12-15T12:37:58;1.50;99.90
7502;DHT22;3792;47.740;7.606;2022-12-15T12:40:31;1.60;99.90
7502;DHT22;3792;47.740;7.606;2022-12-15T12:43:03;1.60;99.90
7502;DHT22;3792;47.740;7.606;2022-12-15T12:45:32;1.30;99.90
7502;DHT22;3792;47.740;7.606;2022-12-15T12:48:11;1.30;99.90
7502;DHT22;3792;47.740;7.606;2022-12-15T12:50:38;1.10;99.90
7502;DHT22;3792;47.740;7.606;2022-12-15T12:53:18;0.90;99.90
7502;DHT22;3792;47.740;7.606;2022-12-15T12:55:50;0.90;99.90
7502;DHT22;3792;47.740;7.606;2022-12-15T12:58:32;0.80;99.90
7502;DHT22;3792;47.740;7.606;2022-12-15T13:01:05;0.80;99.90
7502;DHT22;3792;47.740;7.606;2022-12-15T13:03:41;0.70;99.90
7502;DHT22;3792;47.740;7.606;2022-12-15T13:06:20;0.60;99.90
7502;DHT22;3792;47.740;7.606;2022-12-15T13:08:49;0.40;99.90
7502;DHT22;3792;47.740;7.606;2022-12-15T13:11:54;0.40;99.90
7502;DHT22;3792;47.740;7.606;2022-12-15T13:14:43;0.40;99.90
7502;DHT22;3792;47.740;7.606;2022-12-15T13:17:26;0.50;99.90
7502;DHT22;3792;47.740;7.606;2022-12-15T13:20:28;0.40;99.90
7502;DHT22;3792;47.740;7.606;2022-12-15T13:26:14;0.40;99.90
7502;DHT22;3792;47.740;7.606;2022-12-15T13:28:51;0.40;99.90
7502;DHT22;3792;47.740;7.606;2022-12-15T13:31:45;0.40;99.90
7502;DHT22;3792;47.740;7.606;2022-12-15T13:34:23;0.40;99.90
7502;DHT22;3792;47.740;7.606;2022-12-15T13:36:57;0.40;99.90
7502;DHT22;3792;47.740;7.606;2022-12-15T13:42:31;0.40;99.90
7502;DHT22;3792;47.740;7.606;2022-12-15T13:48:12;0.40;99.90
7502;DHT22;3792;47.740;7.606;2022-12-15T13:50:47;0.40;99.90
7502;DHT22;3792;47.740;7.606;2022-12-15T13:53:19;0.40;99.90
7502;DHT22;3792;47.740;7.606;2022-12-15T13:55:59;0.50;99.90
7502;DHT22;3792;47.740;7.606;2022-12-15T13:58:32;0.60;99.90
7502;DHT22;3792;47.740;7.606;2022-12-15T14:01:17;0.60;99.90
7502;DHT22;3792;47.740;7.606;2022-12-15T14:03:58;0.50;99.90
7502;DHT22;3792;47.740;7.606;2022-12-15T14:06:28;0.50;99.90
7502;DHT22;3792;47.740;7.606;2022-12-15T14:08:57;0.40;99.90
7502;DHT22;3792;47.740;7.606;2022-12-15T14:11:30;0.40;99.90
7502;DHT22;3792;47.740;7.606;2022-12-15T14:13:59;0.40;99.90
7502;DHT22;3792;47.740;7.606;2022-12-15T14:16:28;0.30;99.90
7502;DHT22;3792;47.740;7.606;2022-12-15T14:19:13;0.30;99.90
7502;DHT22;3792;47.740;7.606;2022-12-15T14:21:47;0.20;99.90
7502;DHT22;3792;47.740;7.606;2022-12-15T14:24:24;0.20;99.90
7502;DHT22;3792;47.740;7.606;2022-12-15T14:26:52;0.20;99.90
7502;DHT22;3792;47.740;7.606;2022-12-15T14:29:19;0.20;99.90
7502;DHT22;3792;47.740;7.606;2022-12-15T14:31:50;0.20;99.90
7502;DHT22;3792;47.740;7.606;2022-12-15T14:34:24;0.30;99.90
7502;DHT22;3792;47.740;7.606;2022-12-15T14:36:54;0.30;99.90
7502;DHT22;3792;47.740;7.606;2022-12-15T14:39:26;0.30;99.90
7502;DHT22;3792;47.740;7.606;2022-12-15T14:41:55;0.30;99.90
7502;DHT22;3792;47.740;7.606;2022-12-15T14:44:28;0.40;99.90
7502;DHT22;3792;47.740;7.606;2022-12-15T14:46:56;0.40;99.90
7502;DHT22;3792;47.740;7.606;2022-12-15T14:49:29;0.40;99.90
7502;DHT22;3792;47.740;7.606;2022-12-15T14:51:59;0.40;99.90
7502;DHT22;3792;47.740;7.606;2022-12-15T14:54:30;0.30;99.90
7502;DHT22;3792;47.740;7.606;2022-12-15T14:56:59;0.30;99.90
7502;DHT22;3792;47.740;7.606;2022-12-15T14:59:31;0.30;99.90
7502;DHT22;3792;47.740;7.606;2022-12-15T15:02:06;0.20;99.90
7502;DHT22;3792;47.740;7.606;2022-12-15T15:04:39;0.20;99.90
7502;DHT22;3792;47.740;7.606;2022-12-15T15:07:13;0.20;99.90
7502;DHT22;3792;47.740;7.606;2022-12-15T15:09:44;0.10;99.90
7502;DHT22;3792;47.740;7.606;2022-12-15T15:12:16;0.20;99.90
7502;DHT22;3792;47.740;7.606;2022-12-15T15:14:46;0.20;99.90
7502;DHT22;3792;47.740;7.606;2022-12-15T15:17:23;0.10;99.90
7502;DHT22;3792;47.740;7.606;2022-12-15T15:19:56;0.10;99.90
7502;DHT22;3792;47.740;7.606;2022-12-15T15:22:34;0.20;99.90
7502;DHT22;3792;47.740;7.606;2022-12-15T15:25:02;0.20;99.90
7502;DHT22;3792;47.740;7.606;2022-12-15T15:27:36;0.30;99.90
7502;DHT22;3792;47.740;7.606;2022-12-15T15:30:23;0.30;99.90
7502;DHT22;3792;47.740;7.606;2022-12-15T15:32:54;0.30;99.90
7502;DHT22;3792;47.740;7.606;2022-12-15T15:35:24;0.20;99.90
7502;DHT22;3792;47.740;7.606;2022-12-15T15:37:52;0.20;99.90
7502;DHT22;3792;47.740;7.606;2022-12-15T15:40:23;0.20;99.90
7502;DHT22;3792;47.740;7.606;2022-12-15T15:42:50;0.20;99.90
7502;DHT22;3792;47.740;7.606;2022-12-15T15:45:17;0.10;99.90
7502;DHT22;3792;47.740;7.606;2022-12-15T15:47:47;0.10;99.90
7502;DHT22;3792;47.740;7.606;2022-12-15T15:50:22;0.10;99.90
7502;DHT22;3792;47.740;7.606;2022-12-15T15:52:52;0.10;99.90
7502;DHT22;3792;47.740;7.606;2022-12-15T15:55:26;0.10;99.90
7502;DHT22;3792;47.740;7.606;2022-12-15T15:57:53;0.40;99.90
7502;DHT22;3792;47.740;7.606;2022-12-15T16:00:23;0.70;99.90
7502;DHT22;3792;47.740;7.606;2022-12-15T16:02:50;0.80;99.90
7502;DHT22;3792;47.740;7.606;2022-12-15T16:05:18;0.80;99.90
7502;DHT22;3792;47.740;7.606;2022-12-15T16:07:46;0.70;99.90
7502;DHT22;3792;47.740;7.606;2022-12-15T16:10:17;0.60;99.90
7502;DHT22;3792;47.740;7.606;2022-12-15T16:12:47;0.50;99.90
7502;DHT22;3792;47.740;7.606;2022-12-15T16:15:17;0.30;99.90
7502;DHT22;3792;47.740;7.606;2022-12-15T16:17:45;0.20;99.90
7502;DHT22;3792;47.740;7.606;2022-12-15T16:20:15;0.20;99.90
7502;DHT22;3792;47.740;7.606;2022-12-15T16:22:44;0.10;99.90
7502;DHT22;3792;47.740;7.606;2022-12-15T16:25:16;0.10;99.90
7502;DHT22;3792;47.740;7.606;2022-12-15T16:27:44;0.00;99.90
7502;DHT22;3792;47.740;7.606;2022-12-15T16:30:16;0.10;99.90
7502;DHT22;3792;47.740;7.606;2022-12-15T16:32:44;0.00;99.90
7502;DHT22;3792;47.740;7.606;2022-12-15T16:35:11;0.00;99.90
7502;DHT22;3792;47.740;7.606;2022-12-15T16:37:39;-0.10;99.90
7502;DHT22;3792;47.740;7.606;2022-12-15T16:40:18;0.00;99.90
7502;DHT22;3792;47.740;7.606;2022-12-15T16:42:50;-0.10;99.90
7502;DHT22;3792;47.740;7.606;2022-12-15T16:45:20;-0.10;99.90
7502;DHT22;3792;47.740;7.606;2022-12-15T16:47:47;-0.10;99.90
7502;DHT22;3792;47.740;7.606;2022-12-15T16:50:17;0.00;99.90
7502;DHT22;3792;47.740;7.606;2022-12-15T16:52:47;-0.10;99.90
7502;DHT22;3792;47.740;7.606;2022-12-15T16:55:22;-0.20;99.90
7502;DHT22;3792;47.740;7.606;2022-12-15T16:57:50;-0.20;99.90
7502;DHT22;3792;47.740;7.606;2022-12-15T17:00:19;-0.10;99.90
7502;DHT22;3792;47.740;7.606;2022-12-15T17:02:46;-0.20;99.90
7502;DHT22;3792;47.740;7.606;2022-12-15T17:05:14;-0.10;99.90
7502;DHT22;3792;47.740;7.606;2022-12-15T17:07:42;-0.10;99.90
7502;DHT22;3792;47.740;7.606;2022-12-15T17:10:16;-0.10;99.90
7502;DHT22;3792;47.740;7.606;2022-12-15T17:12:45;-0.10;99.90